Time;durP1;ratioP1;P1;durP2;ratioP2;P2;SDS_P1;SDS_P2;PMS_P1;PMS_P2;Temp;Humidity;BMP_temperature;BMP_pressure;BME280_temperature;BME280_humidity;BME280_pressure;Samples;Min_cycle;Max_cycle;Signal;HPM_P1;HPM_P2
2023/02/03 00:01:34;;;;;;;17.52;8.73;;;103.30;2227.20;;;;;;4996302;28;20477;-82
2023/02/03 00:04:00;;;;;;;21.48;8.77;;;103.30;2227.20;;;;;;4995798;28;20029;-82
2023/02/03 00:06:26;;;;;;;15.18;8.10;;;103.30;2227.20;;;;;;4995937;28;20026;-82
2023/02/03 00:08:55;;;;;;;13.63;8.68;;;103.10;2227.20;;;;;;4996148;28;20029;-80
2023/02/03 00:11:22;;;;;;;13.90;8.07;;;103.00;2227.20;;;;;;4995681;28;20116;-78
2023/02/03 00:13:47;;;;;;;11.98;6.82;;;103.00;2227.20;;;;;;4995329;28;20077;-82
2023/02/03 00:16:13;;;;;;;13.20;7.10;;;102.90;2227.20;;;;;;4996194;28;20026;-81
2023/02/03 00:18:39;;;;;;;24.40;11.68;;;102.90;2227.20;;;;;;4996588;28;20050;-78
2023/02/03 00:21:06;;;;;;;12.07;6.10;;;102.90;2227.20;;;;;;4997924;28;20033;-79
2023/02/03 00:23:32;;;;;;;18.30;9.05;;;102.80;2227.20;;;;;;4997999;28;20034;-80
2023/02/03 00:26:07;;;;;;;16.63;8.85;;;102.70;2227.20;;;;;;4996356;28;20517;-81
2023/02/03 00:28:33;;;;;;;8.68;4.35;;;;;;;;;;4997924;28;20027;-80
2023/02/03 00:31:01;;;;;;;14.90;7.32;;;;;;;;;;4998400;28;20035;-81
2023/02/03 00:33:32;;;;;;;11.75;6.03;;;;;;;;;;4999887;28;20026;-83
2023/02/03 00:35:58;;;;;;;9.93;5.43;;;;;;;;;;5000624;28;20026;-82
2023/02/03 00:38:27;;;;;;;9.63;4.65;;;;;;;;;;4998157;28;20034;-81
2023/02/03 00:40:53;;;;;;;12.10;6.60;;;;;;;;;;4997695;28;20027;-82
2023/02/03 00:43:20;;;;;;;15.48;7.28;;;;;;;;;;4998210;28;20022;-81
2023/02/03 00:45:46;;;;;;;11.75;6.93;;;103.00;2227.20;;;;;;4999009;28;20065;-84
2023/02/03 00:48:12;;;;;;;6.90;4.13;;;102.90;2227.20;;;;;;4996723;28;20180;-80
2023/02/03 00:50:38;;;;;;;8.13;4.53;;;102.80;2227.20;;;;;;4995747;28;20026;-82
2023/02/03 00:53:06;;;;;;;12.98;6.32;;;102.90;2227.20;;;;;;4996692;28;20030;-83
2023/02/03 00:55:33;;;;;;;9.02;5.18;;;102.90;2227.20;;;;;;4996036;28;20034;-80
2023/02/03 00:57:59;;;;;;;9.10;4.63;;;102.90;2227.20;;;;;;4979596;28;20485;-84
2023/02/03 01:00:25;;;;;;;11.32;7.45;;;102.90;2227.20;;;;;;4994137;28;20085;-82
2023/02/03 05:10:06;;;;;;;9.02;5.55;;;128.40;2252.80;;;;;;4987132;28;20046;-90
2023/02/03 05:12:33;;;;;;;10.68;5.28;;;128.50;2252.80;;;;;;4962908;28;20125;-89
2023/02/03 05:14:59;;;;;;;11.05;5.97;;;128.40;2252.80;;;;;;4978381;28;20165;-89
2023/02/03 05:17:25;;;;;;;12.25;6.63;;;128.40;2252.80;;;;;;4961735;28;20038;-90
2023/02/03 05:19:51;;;;;;;8.80;5.10;;;128.40;2252.80;;;;;;4978157;28;20034;-89
2023/02/03 05:22:16;;;;;;;12.05;6.82;;;128.40;2252.80;;;;;;4987866;28;20034;-91
2023/02/03 05:24:43;;;;;;;11.18;6.40;;;128.40;2252.80;;;;;;5034924;28;20492;-90
2023/02/03 05:27:09;;;;;;;10.75;6.50;;;128.30;2252.80;;;;;;5034881;28;20087;-92
2023/02/03 05:29:35;;;;;;;11.68;6.60;;;128.40;2252.80;;;;;;5034659;28;20049;-91
2023/02/03 05:32:00;;;;;;;15.98;8.40;;;128.40;2252.80;;;;;;5034705;28;20017;-91
2023/02/03 05:34:26;;;;;;;10.77;6.95;;;128.40;2252.80;;;;;;5034411;28;20053;-90
2023/02/03 05:36:52;;;;;;;10.35;7.15;;;128.40;2252.80;;;;;;5034650;28;20025;-92
2023/02/03 05:39:20;;;;;;;13.05;7.05;;;128.40;2252.80;;;;;;5034631;28;20021;-90
2023/02/03 05:44:31;;;;;;;15.55;8.13;;;128.40;2252.80;;;;;;5037647;28;20543;-91
2023/02/03 05:46:58;;;;;;;16.25;10.65;;;128.40;2252.80;;;;;;5036909;28;20029;-91
2023/02/03 05:49:24;;;;;;;20.17;10.52;;;128.30;2252.80;;;;;;5036766;28;20120;-90
2023/02/03 05:51:52;;;;;;;11.18;6.78;;;128.30;2252.80;;;;;;5037067;28;20481;-88
2023/02/03 05:54:19;;;;;;;14.68;8.02;;;128.30;2252.80;;;;;;5054690;28;20021;-89
2023/02/03 05:56:47;;;;;;;17.00;9.82;;;128.30;2252.80;;;;;;5037139;28;20032;-89
2023/02/03 05:59:14;;;;;;;20.40;13.00;;;128.40;2252.80;;;;;;5020647;28;20025;-90
2023/02/03 06:01:40;;;;;;;22.30;14.13;;;128.30;2252.80;;;;;;5021231;28;20025;-91
2023/02/03 06:04:06;;;;;;;17.15;9.23;;;128.30;2252.80;;;;;;5036980;28;20082;-90
2023/02/03 06:06:33;;;;;;;17.58;9.15;;;128.20;2252.80;;;;;;5053743;28;20114;-91
2023/02/03 06:12:22;;;;;;;20.20;11.95;;;128.30;2252.80;;;;;;5055144;28;20090;-91
2023/02/03 06:14:49;;;;;;;14.25;8.93;;;128.30;2252.80;;;;;;5037339;28;20055;-92
2023/02/03 06:17:15;;;;;;;16.02;7.55;;;128.30;2252.80;;;;;;5020408;28;20534;-90
2023/02/03 06:19:41;;;;;;;16.50;8.50;;;128.30;2252.80;;;;;;5019896;28;20409;-91
2023/02/03 06:22:10;;;;;;;17.63;8.82;;;128.40;2252.80;;;;;;5053435;28;20056;-91
2023/02/03 06:24:43;;;;;;;13.63;8.40;;;128.40;2252.80;;;;;;5053400;28;20120;-91
2023/02/03 06:30:16;;;;;;;17.90;7.25;;;128.40;2252.80;;;;;;5042135;28;20500;-91
2023/02/03 06:36:08;;;;;;;17.58;9.93;;;128.40;2252.80;;;;;;5054604;28;20043;-91
2023/02/03 06:38:34;;;;;;;19.98;11.43;;;128.40;2252.80;;;;;;5036296;28;20025;-90
2023/02/03 06:41:00;;;;;;;16.33;9.68;;;128.40;2252.80;;;;;;5036493;28;20119;-90
2023/02/03 06:46:30;;;;;;;11.48;6.93;;;128.40;2252.80;;;;;;5054392;28;20389;-90
2023/02/03 06:48:56;;;;;;;17.02;9.38;;;128.40;2252.80;;;;;;5036367;28;20119;-92
2023/02/03 06:51:26;;;;;;;24.95;12.73;;;128.40;2252.80;;;;;;5053049;28;20139;-90
2023/02/03 06:53:57;;;;;;;26.23;11.60;;;128.40;2252.80;;;;;;5035783;28;20488;-91
2023/02/03 07:06:15;;;;;;;11.52;7.45;;;128.40;2252.80;;;;;;5054230;28;20036;-90
2023/02/03 07:08:43;;;;;;;26.50;13.50;;;128.40;2252.80;;;;;;5053962;28;20078;-90
2023/02/03 07:11:12;;;;;;;30.75;17.88;;;128.50;2252.80;;;;;;5037027;28;20029;-90
2023/02/03 07:36:06;;;;;;;59.53;40.45;;;128.80;2252.80;;;;;;5053997;28;20090;-91
2023/02/03 07:38:33;;;;;;;49.28;28.45;;;128.80;2252.80;;;;;;5053065;28;20544;-90
2023/02/03 07:47:25;;;;;;;14.98;9.93;;;153.60;2252.80;;;;;;5042747;28;20111;-90
2023/02/03 07:50:03;;;;;;;17.83;10.77;;;153.60;2252.80;;;;;;5057467;28;20051;-90
2023/02/03 08:24:58;;;;;;;12.60;8.52;;;;;;;;;;5056970;28;20097;-88
2023/02/03 08:30:14;;;;;;;16.17;10.30;;;153.90;2252.80;;;;;;5056432;28;20028;-90
2023/02/03 08:32:43;;;;;;;16.63;9.80;;;153.80;2252.80;;;;;;5056851;28;20104;-89
2023/02/03 08:35:29;;;;;;;11.82;6.72;;;153.80;2252.80;;;;;;5041507;28;20036;-85
2023/02/03 08:41:25;;;;;;;13.63;6.80;;;153.80;2252.80;;;;;;5056470;28;20066;-90
2023/02/03 08:43:58;;;;;;;11.80;7.00;;;153.90;2252.80;;;;;;5055707;28;20025;-85
2023/02/03 08:46:25;;;;;;;12.05;7.63;;;153.80;2252.80;;;;;;5039785;28;20029;-87
2023/02/03 08:48:55;;;;;;;14.55;9.95;;;154.00;2252.80;;;;;;5054846;28;20034;-89
2023/02/03 08:51:21;;;;;;;14.27;7.75;;;154.00;2252.80;;;;;;5053557;28;20135;-83
2023/02/03 08:53:47;;;;;;;16.13;10.77;;;154.10;2252.80;;;;;;5054374;28;20472;-81
2023/02/03 08:56:13;;;;;;;12.85;8.48;;;154.10;2252.80;;;;;;5046563;28;20464;-82
2023/02/03 08:58:39;;;;;;;11.75;7.57;;;154.20;2252.80;;;;;;5039854;28;20105;-87
2023/02/03 09:01:09;;;;;;;14.90;9.68;;;154.20;2252.80;;;;;;5032942;28;20029;-87
2023/02/03 09:03:36;;;;;;;6.75;3.80;;;154.40;2252.80;;;;;;5017963;28;20421;-82
2023/02/03 09:06:02;;;;;;;14.10;7.32;;;154.40;2252.80;;;;;;5018435;28;20047;-82
2023/02/03 09:08:28;;;;;;;11.98;7.50;;;154.40;2252.80;;;;;;5037554;28;20377;-83
2023/02/03 09:10:54;;;;;;;11.30;6.53;;;154.40;2252.80;;;;;;5054354;28;20028;-80
2023/02/03 09:13:20;;;;;;;16.40;8.95;;;154.40;2252.80;;;;;;5053661;28;20021;-84
2023/02/03 09:15:46;;;;;;;12.20;7.82;;;154.50;2252.80;;;;;;5053994;28;20044;-82
2023/02/03 09:18:12;;;;;;;13.00;7.03;;;154.50;2252.80;;;;;;5056473;28;20078;-82
2023/02/03 09:20:37;;;;;;;13.88;9.13;;;179.20;2252.80;;;;;;5069302;28;20029;-83
2023/02/03 09:23:03;;;;;;;11.20;6.35;;;179.30;2252.80;;;;;;5057491;28;20529;-85
2023/02/03 09:25:29;;;;;;;21.70;17.33;;;179.40;2252.80;;;;;;5053627;28;20083;-83
2023/02/03 09:27:55;;;;;;;12.50;8.30;;;179.50;2252.80;;;;;;5074146;28;20498;-84
2023/02/03 09:30:20;;;;;;;16.73;11.73;;;179.50;2252.80;;;;;;5042022;28;20508;-84
2023/02/03 09:32:52;;;;;;;15.18;9.35;;;179.40;2252.80;;;;;;5019532;28;20377;-86
2023/02/03 09:35:19;;;;;;;17.92;11.80;;;179.40;2252.80;;;;;;5020900;28;20119;-85
2023/02/03 09:37:45;;;;;;;18.70;12.40;;;179.40;2252.80;;;;;;5038480;28;20093;-86
2023/02/03 09:40:38;;;;;;;23.98;14.52;;;179.50;2252.80;;;;;;5041810;28;20017;-85
2023/02/03 09:43:12;;;;;;;22.60;14.02;;;179.30;2252.80;;;;;;5035116;28;20029;-81
2023/02/03 09:45:37;;;;;;;27.60;17.35;;;179.30;2252.80;;;;;;5041522;28;20041;-80
2023/02/03 09:48:18;;;;;;;55.97;32.13;;;179.30;2252.80;;;;;;5018677;28;20025;-79
2023/02/03 09:50:45;;;;;;;25.05;16.55;;;179.30;2252.80;;;;;;5018541;28;20120;-81
2023/02/03 09:53:44;;;;;;;25.42;17.40;;;179.20;2252.80;;;;;;5019442;28;20028;-88
2023/02/03 09:56:35;;;;;;;16.77;10.23;;;179.20;2252.80;;;;;;5018789;28;20072;-86
2023/02/03 09:59:02;;;;;;;10.90;7.03;;;154.50;2252.80;;;;;;5018469;28;20091;-88
2023/02/03 10:01:39;;;;;;;15.80;10.15;;;154.50;2252.80;;;;;;5016989;28;20025;-85
2023/02/03 10:04:15;;;;;;;16.77;9.52;;;154.50;2252.80;;;;;;5017161;28;20025;-85
2023/02/03 10:06:45;;;;;;;14.07;9.88;;;154.50;2252.80;;;;;;5017257;28;20025;-86
2023/02/03 10:09:36;;;;;;;13.95;8.90;;;154.50;2252.80;;;;;;5016680;28;20033;-87
2023/02/03 10:12:30;;;;;;;17.38;11.35;;;154.40;2252.80;;;;;;5017091;28;20090;-88
2023/02/03 10:15:14;;;;;;;10.93;7.65;;;154.40;2252.80;;;;;;5033203;28;20037;-92
2023/02/03 10:17:46;;;;;;;7.93;4.55;;;154.30;2252.80;;;;;;5017058;28;20129;-88
2023/02/03 10:20:32;;;;;;;11.52;6.90;;;154.30;2252.80;;;;;;5016934;28;20530;-88
2023/02/03 10:23:04;;;;;;;8.82;5.43;;;154.40;2252.80;;;;;;5016495;28;20041;-90
2023/02/03 10:25:53;;;;;;;11.18;6.25;;;154.40;2252.80;;;;;;5017064;28;20029;-90
2023/02/03 10:28:22;;;;;;;9.23;5.00;;;154.40;2252.80;;;;;;5016641;28;20121;-86
2023/02/03 10:30:58;;;;;;;8.30;4.97;;;154.50;2252.80;;;;;;5017678;28;20067;-92
2023/02/03 10:33:29;;;;;;;9.20;4.90;;;154.50;2252.80;;;;;;5016781;28;20025;-93
2023/02/03 10:36:16;;;;;;;10.65;6.10;;;154.50;2252.80;;;;;;5016987;28;20048;-93
2023/02/03 10:38:57;;;;;;;13.18;8.35;;;154.50;2252.80;;;;;;5017094;28;20087;-92
2023/02/03 10:41:23;;;;;;;12.23;6.85;;;179.30;2252.80;;;;;;5016873;28;20056;-93
2023/02/03 10:43:51;;;;;;;10.85;6.10;;;179.30;2252.80;;;;;;5016609;28;20026;-91
2023/02/03 10:46:28;;;;;;;9.15;5.93;;;179.30;2252.80;;;;;;5016854;28;20026;-92
2023/02/03 10:48:54;;;;;;;8.85;6.15;;;179.50;2252.80;;;;;;5016161;28;20026;-91
2023/02/03 10:51:25;;;;;;;7.30;4.60;;;179.50;2252.80;;;;;;5016387;28;20086;-91
2023/02/03 10:53:52;;;;;;;8.73;5.22;;;179.70;2252.80;;;;;;5016860;28;20033;-91
2023/02/03 10:56:38;;;;;;;11.25;5.78;;;179.80;2252.80;;;;;;5016925;28;20380;-91
2023/02/03 10:59:06;;;;;;;14.57;6.30;;;179.90;2252.80;;;;;;5016406;28;20022;-92
2023/02/03 11:01:41;;;;;;;12.27;6.95;;;179.80;2252.80;;;;;;5016951;28;20021;-92
2023/02/03 11:04:30;;;;;;;7.38;5.00;;;204.90;2252.80;;;;;;5016388;28;20036;-90
2023/02/03 11:07:00;;;;;;;11.48;6.00;;;205.00;2252.80;;;;;;5016644;28;20038;-91
2023/02/03 11:09:38;;;;;;;9.57;4.82;;;205.10;2252.80;;;;;;5016694;28;20033;-88
2023/02/03 11:12:13;;;;;;;11.85;5.15;;;205.00;2252.80;;;;;;5041511;28;20036;-93
2023/02/03 11:14:43;;;;;;;26.33;16.95;;;205.00;2252.80;;;;;;5057595;28;20056;-92
2023/02/03 11:17:18;;;;;;;14.32;9.23;;;205.00;2252.80;;;;;;5060850;28;20029;-90
2023/02/03 11:19:50;;;;;;;17.60;9.88;;;205.20;2252.80;;;;;;5060205;28;20465;-90
2023/02/03 11:22:37;;;;;;;14.10;7.93;;;205.20;2252.80;;;;;;5059724;28;20139;-90
2023/02/03 11:25:15;;;;;;;8.63;5.15;;;205.20;2252.80;;;;;;5059988;28;20037;-92
2023/02/03 11:27:42;;;;;;;13.82;7.75;;;205.20;2252.80;;;;;;5060175;28;20028;-89
2023/02/03 11:30:16;;;;;;;17.65;9.90;;;205.30;2252.80;;;;;;5060171;28;20028;-92
2023/02/03 11:32:45;;;;;;;9.15;5.43;;;205.30;2252.80;;;;;;5060017;28;20130;-90
2023/02/03 11:35:24;;;;;;;11.52;6.82;;;205.30;2252.80;;;;;;5059975;28;20039;-91
2023/02/03 11:37:52;;;;;;;19.35;10.00;;;205.40;2252.80;;;;;;5059824;28;20476;-89
2023/02/03 11:40:23;;;;;;;16.33;11.35;;;205.40;2252.80;;;;;;5059422;28;20023;-89
2023/02/03 11:42:49;;;;;;;11.88;6.60;;;205.60;2252.80;;;;;;5059465;28;20528;-89
2023/02/03 11:45:40;;;;;;;15.88;8.85;;;205.70;2252.80;;;;;;5054302;28;20067;-89
2023/02/03 11:48:15;;;;;;;14.73;9.73;;;230.60;2252.80;;;;;;5039767;28;20098;-90
2023/02/03 11:50:53;;;;;;;18.33;9.27;;;231.00;2176.00;;;;;;5039834;28;20036;-93
2023/02/03 11:53:40;;;;;;;13.05;7.90;;;231.00;2176.00;;;;;;5039653;28;20036;-88
2023/02/03 11:56:19;;;;;;;12.80;6.80;;;230.80;2201.60;;;;;;5039747;28;20095;-88
2023/02/03 11:59:02;;;;;;;12.60;7.45;;;230.40;2201.60;;;;;;5039671;28;20120;-88
2023/02/03 12:02:05;;;;;;;14.55;11.63;;;230.40;2201.60;;;;;;5039445;28;20029;-90
2023/02/03 12:04:52;;;;;;;17.50;10.40;;;205.70;2176.00;;;;;;5039561;28;20480;-88
2023/02/03 12:07:43;;;;;;;13.50;7.43;;;205.60;2227.20;;;;;;5039379;28;20021;-87
2023/02/03 12:10:31;;;;;;;15.10;9.05;;;230.90;2150.40;;;;;;5039431;28;20377;-88
2023/02/03 12:12:57;;;;;;;26.83;14.15;;;256.10;2099.20;;;;;;5039295;28;20036;-89
2023/02/03 12:15:48;;;;;;;11.57;5.60;;;256.50;2150.40;;;;;;5039000;28;20033;-89
2023/02/03 12:18:45;;;;;;;26.48;16.05;;;256.60;2048.00;;;;;;5039383;28;20134;-92
2023/02/03 12:21:37;;;;;;;14.13;7.97;;;256.30;2099.20;;;;;;5038985;28;20053;-90
2023/02/03 12:24:26;;;;;;;19.25;10.65;;;256.20;2099.20;;;;;;5039928;28;20116;-92
2023/02/03 12:27:34;;;;;;;23.55;11.20;;;231.30;2124.80;;;;;;5038209;28;20025;-94
2023/02/03 12:30:06;;;;;;;27.60;16.17;;;231.30;2150.40;;;;;;5030582;28;20029;-89
2023/02/03 12:32:47;;;;;;;11.85;6.78;;;231.20;2176.00;;;;;;5038493;28;20044;-87
2023/02/03 12:35:34;;;;;;;11.85;7.10;;;231.00;2150.40;;;;;;5038942;28;20037;-91
2023/02/03 12:38:14;;;;;;;7.75;4.85;;;230.90;2150.40;;;;;;5038733;28;20036;-89
2023/02/03 12:40:51;;;;;;;19.35;11.20;;;230.70;2099.20;;;;;;5038861;28;20029;-90
2023/02/03 12:43:16;;;;;;;12.25;7.53;;;230.60;2176.00;;;;;;5038968;28;20021;-87
2023/02/03 12:45:53;;;;;;;15.18;8.27;;;230.40;2176.00;;;;;;5038599;28;20025;-92
2023/02/03 12:48:23;;;;;;;11.30;6.18;;;205.70;2201.60;;;;;;5038930;28;20047;-91
2023/02/03 12:51:05;;;;;;;14.38;7.68;;;205.60;2252.80;;;;;;5038707;28;20380;-87
2023/02/03 12:53:38;;;;;;;16.50;9.30;;;205.50;2227.20;;;;;;5037387;28;20025;-87
2023/02/03 12:56:12;;;;;;;8.13;5.47;;;205.40;2201.60;;;;;;5054756;28;20492;-88
2023/02/03 12:58:55;;;;;;;12.27;7.28;;;205.30;2227.20;;;;;;5054723;28;20029;-88
2023/02/03 13:01:37;;;;;;;10.95;7.88;;;205.30;2252.80;;;;;;5044981;28;20358;-92
2023/02/03 13:04:17;;;;;;;11.65;7.43;;;205.20;2252.80;;;;;;5018160;28;20037;-86
2023/02/03 13:07:01;;;;;;;14.15;8.80;;;205.10;2252.80;;;;;;5018156;28;20028;-88
2023/02/03 13:09:47;;;;;;;42.00;30.02;;;205.20;2252.80;;;;;;5037412;28;20021;-90
2023/02/03 13:12:29;;;;;;;24.10;15.68;;;205.10;2252.80;;;;;;5038430;28;20430;-91
2023/02/03 13:15:19;;;;;;;33.90;21.17;;;205.20;2252.80;;;;;;5038533;28;20029;-91
2023/02/03 13:17:55;;;;;;;14.55;9.65;;;205.20;2252.80;;;;;;5038456;28;20124;-91
2023/02/03 13:20:29;;;;;;;18.17;12.88;;;205.20;2252.80;;;;;;5038598;28;20036;-91
2023/02/03 13:22:56;;;;;;;17.67;11.35;;;205.20;2252.80;;;;;;5038195;28;20121;-92
2023/02/03 13:26:00;;;;;;;24.40;16.00;;;205.20;2252.80;;;;;;5038513;28;20039;-91
2023/02/03 13:28:36;;;;;;;14.13;10.25;;;205.30;2252.80;;;;;;5038215;28;20063;-90
2023/02/03 13:31:05;;;;;;;22.27;11.95;;;205.40;2252.80;;;;;;5038074;28;20563;-88
2023/02/03 13:33:49;;;;;;;20.38;11.90;;;205.60;2252.80;;;;;;5037582;28;20021;-89
2023/02/03 13:36:39;;;;;;;14.38;8.35;;;205.50;2227.20;;;;;;5037718;28;20032;-88
2023/02/03 13:39:37;;;;;;;22.75;12.70;;;205.40;2227.20;;;;;;5037351;28;20465;-87
2023/02/03 13:42:26;;;;;;;16.63;9.15;;;205.30;2252.80;;;;;;5012518;28;20074;-88
2023/02/03 13:45:01;;;;;;;22.73;15.38;;;205.20;2252.80;;;;;;5037508;28;20032;-88
2023/02/03 13:47:29;;;;;;;31.33;20.30;;;205.20;2252.80;;;;;;5037392;28;20098;-88
2023/02/03 13:50:00;;;;;;;33.33;20.88;;;205.20;2252.80;;;;;;5036900;28;20553;-89
2023/02/03 13:52:31;;;;;;;50.08;34.33;;;205.10;2252.80;;;;;;5037140;28;20060;-88
2023/02/03 13:54:58;;;;;;;41.58;27.10;;;205.20;2252.80;;;;;;5037137;28;20033;-89
2023/02/03 13:57:33;;;;;;;35.92;22.88;;;205.10;2252.80;;;;;;5037053;28;20035;-88
2023/02/03 14:00:00;;;;;;;28.65;18.13;;;205.10;2252.80;;;;;;5037229;28;20116;-88
2023/02/03 14:02:26;;;;;;;40.30;23.80;;;205.20;2252.80;;;;;;5036812;28;20025;-88
2023/02/03 14:04:57;;;;;;;44.72;26.83;;;205.10;2252.80;;;;;;5036927;28;20090;-88
2023/02/03 14:07:22;;;;;;;55.97;31.00;;;205.00;2252.80;;;;;;5036701;28;20157;-88
2023/02/03 14:10:13;;;;;;;27.67;16.52;;;205.00;2252.80;;;;;;5036645;28;20055;-91
2023/02/03 14:12:51;;;;;;;27.73;17.52;;;205.00;2252.80;;;;;;5037117;28;20021;-91
2023/02/03 14:15:30;;;;;;;35.22;22.73;;;205.00;2252.80;;;;;;5037001;28;20139;-91
2023/02/03 14:18:00;;;;;;;45.05;27.13;;;205.00;2252.80;;;;;;5020688;28;20076;-92
2023/02/03 14:20:26;;;;;;;60.08;35.72;;;205.10;2252.80;;;;;;5036729;28;20032;-90
2023/02/03 14:23:05;;;;;;;45.85;28.27;;;205.10;2252.80;;;;;;5036724;28;20131;-89
2023/02/03 14:25:37;;;;;;;24.95;17.73;;;205.10;2252.80;;;;;;5070268;28;20037;-89
2023/02/03 14:28:17;;;;;;;21.53;12.67;;;205.20;2252.80;;;;;;5036908;28;20017;-89
2023/02/03 14:31:04;;;;;;;21.90;11.82;;;205.20;2252.80;;;;;;5036821;28;20036;-90
2023/02/03 14:34:05;;;;;;;106.57;72.82;;;205.10;2252.80;;;;;;5037078;28;20017;-91
2023/02/03 14:36:40;;;;;;;54.20;38.58;;;205.10;2252.80;;;;;;4990751;28;20041;-93
2023/02/03 14:39:21;;;;;;;37.60;24.85;;;205.10;2252.80;;;;;;5037135;28;20039;-92
2023/02/03 14:42:18;;;;;;;33.05;21.20;;;205.10;2252.80;;;;;;5036824;28;20052;-91
2023/02/03 14:45:08;;;;;;;59.47;39.00;;;205.10;2227.20;;;;;;5036839;28;20029;-91
2023/02/03 14:47:53;;;;;;;52.90;34.58;;;205.10;2252.80;;;;;;5036544;28;20028;-89
2023/02/03 14:50:35;;;;;;;65.95;39.85;;;205.10;2252.80;;;;;;5035933;28;20092;-91
2023/02/03 14:53:46;;;;;;;71.88;43.13;;;205.20;2252.80;;;;;;5036611;28;20021;-93
2023/02/03 14:56:26;;;;;;;74.15;42.35;;;205.20;2252.80;;;;;;5008019;28;20041;-91
2023/02/03 14:58:59;;;;;;;75.85;44.67;;;205.30;2252.80;;;;;;5036540;28;20392;-90
2023/02/03 15:01:48;;;;;;;75.22;48.47;;;205.30;2252.80;;;;;;5037019;28;20484;-92
2023/02/03 15:04:14;;;;;;;64.32;40.92;;;205.30;2252.80;;;;;;5037222;28;20036;-89
2023/02/03 15:06:43;;;;;;;55.13;35.63;;;205.20;2252.80;;;;;;5053992;28;20021;-91
2023/02/03 15:09:29;;;;;;;50.80;33.47;;;205.30;2252.80;;;;;;5036284;28;20025;-91
2023/02/03 15:11:54;;;;;;;50.53;31.92;;;205.30;2252.80;;;;;;5036292;28;20017;-93
2023/02/03 15:14:31;;;;;;;73.05;46.65;;;205.30;2252.80;;;;;;5049430;28;20036;-92
2023/02/03 15:17:00;;;;;;;84.88;50.25;;;205.40;2252.80;;;;;;5056547;28;20066;-91
2023/02/03 15:19:39;;;;;;;86.57;49.80;;;205.40;2252.80;;;;;;5056115;28;20033;-89
2023/02/03 15:22:22;;;;;;;69.95;44.80;;;205.30;2252.80;;;;;;5056274;28;20553;-86
2023/02/03 15:25:02;;;;;;;57.75;38.25;;;205.40;2252.80;;;;;;5040991;28;20033;-87
2023/02/03 15:27:30;;;;;;;60.15;37.17;;;205.40;2252.80;;;;;;5052699;28;20029;-89
2023/02/03 15:29:58;;;;;;;86.70;44.72;;;205.30;2252.80;;;;;;5052684;28;20025;-91
2023/02/03 15:32:26;;;;;;;106.20;50.47;;;205.40;2252.80;;;;;;5055994;28;20505;-88
2023/02/03 15:34:52;;;;;;;86.85;50.10;;;205.30;2252.80;;;;;;5056043;28;20024;-88
2023/02/03 15:37:35;;;;;;;69.70;41.30;;;205.40;2252.80;;;;;;5056223;28;20032;-92
2023/02/03 15:40:01;;;;;;;;;;;205.30;2252.80;;;;;;5056126;28;20063;-89
2023/02/03 15:42:37;;;;;;;52.75;34.17;;;205.20;2252.80;;;;;;5072685;28;19905;-89
2023/02/03 15:45:31;;;;;;;51.40;33.45;;;205.20;2252.80;;;;;;5055819;28;20043;-89
2023/02/03 15:48:05;;;;;;;49.22;31.85;;;205.20;2252.80;;;;;;5056275;28;20036;-92
2023/02/03 15:50:57;;;;;;;49.30;31.58;;;205.20;2252.80;;;;;;5056262;28;20021;-91
2023/02/03 15:53:33;;;;;;;70.90;41.37;;;205.10;2252.80;;;;;;5056432;28;20021;-89
2023/02/03 15:56:04;;;;;;;58.03;35.50;;;205.00;2252.80;;;;;;5055824;28;20032;-90
2023/02/03 15:58:39;;;;;;;54.33;34.80;;;205.00;2252.80;;;;;;5056470;28;20127;-91
2023/02/03 16:01:09;;;;;;;42.72;29.02;;;205.00;2252.80;;;;;;5040243;28;20110;-90
2023/02/03 16:03:41;;;;;;;53.92;34.45;;;204.90;2252.80;;;;;;5019278;28;20080;-87
2023/02/03 16:06:17;;;;;;;56.37;35.60;;;204.90;2252.80;;;;;;5035274;28;20033;-89
2023/02/03 16:08:45;;;;;;;69.10;43.53;;;204.90;2252.80;;;;;;5019443;28;20330;-90
2023/02/03 16:11:20;;;;;;;64.88;45.63;;;204.90;2252.80;;;;;;5019497;28;20117;-91
2023/02/03 16:13:46;;;;;;;66.35;48.15;;;204.90;2252.80;;;;;;5019362;28;20112;-90
2023/02/03 16:16:20;;;;;;;103.32;62.95;;;204.90;2252.80;;;;;;5036591;28;20120;-88
2023/02/03 16:19:06;;;;;;;116.70;69.88;;;204.90;2252.80;;;;;;5019227;28;20029;-90
2023/02/03 16:21:52;;;;;;;104.53;64.85;;;204.90;2252.80;;;;;;5033534;28;20489;-88
2023/02/03 16:24:39;;;;;;;88.55;55.50;;;204.80;2252.80;;;;;;5018763;28;20035;-90
2023/02/03 16:27:24;;;;;;;90.65;55.00;;;204.80;2252.80;;;;;;5018936;28;20531;-86
2023/02/03 16:51:53;;;;;;;177.30;108.18;;;180.10;2252.80;;;;;;5036153;28;20060;-84
2023/02/03 16:54:19;;;;;;;203.50;120.63;;;204.80;2252.80;;;;;;5018080;28;20477;-90
2023/02/03 16:56:45;;;;;;;157.45;94.53;;;204.80;2252.80;;;;;;5018357;28;20082;-86
2023/02/03 16:59:10;;;;;;;152.45;90.97;;;180.10;2252.80;;;;;;5018562;28;20025;-91
2023/02/03 17:01:36;;;;;;;185.00;111.93;;;180.10;2252.80;;;;;;5018450;28;20495;-90
2023/02/03 17:04:02;;;;;;;176.77;107.32;;;180.10;2252.80;;;;;;5018723;28;20029;-89
2023/02/03 17:06:28;;;;;;;141.70;86.15;;;179.90;2252.80;;;;;;5019007;28;20031;-89
2023/02/03 17:08:54;;;;;;;104.93;66.05;;;179.90;2252.80;;;;;;5018679;28;20021;-88
2023/02/03 17:11:22;;;;;;;92.75;58.35;;;179.80;2252.80;;;;;;5018582;28;20025;-86
2023/02/03 17:13:49;;;;;;;101.10;61.78;;;179.70;2252.80;;;;;;5017637;28;20453;-91
2023/02/03 17:16:19;;;;;;;101.25;63.72;;;179.70;2252.80;;;;;;5018271;28;20045;-87
2023/02/03 17:18:45;;;;;;;88.88;55.40;;;179.70;2252.80;;;;;;5018027;28;20033;-89
2023/02/03 17:21:15;;;;;;;73.72;47.72;;;179.70;2252.80;;;;;;5018025;28;20077;-90
2023/02/03 17:23:41;;;;;;;66.05;41.85;;;179.70;2252.80;;;;;;5018421;28;20040;-90
2023/02/03 17:26:07;;;;;;;65.57;37.60;;;179.80;2252.80;;;;;;5018132;28;20033;-89
2023/02/03 17:28:33;;;;;;;78.30;42.72;;;179.90;2252.80;;;;;;5018541;28;20082;-88
2023/02/03 17:31:02;;;;;;;71.15;41.45;;;179.90;2252.80;;;;;;5018383;28;20120;-87
2023/02/03 17:33:30;;;;;;;69.25;42.85;;;179.80;2252.80;;;;;;5017531;28;20022;-87
2023/02/03 17:36:05;;;;;;;73.82;45.38;;;179.80;2252.80;;;;;;5017642;28;20116;-86
2023/02/03 17:38:36;;;;;;;70.70;45.33;;;179.90;2252.80;;;;;;5017472;28;20082;-85
2023/02/03 17:41:10;;;;;;;89.63;52.97;;;179.90;2252.80;;;;;;5017602;28;20033;-90
2023/02/03 17:43:36;;;;;;;95.53;52.42;;;179.80;2252.80;;;;;;5017742;28;20033;-87
2023/02/03 17:46:03;;;;;;;128.70;77.47;;;179.60;2252.80;;;;;;5017478;28;20511;-87
2023/02/03 17:48:29;;;;;;;125.75;71.63;;;179.60;2252.80;;;;;;5017542;28;20473;-88
2023/02/03 17:50:54;;;;;;;125.22;64.95;;;179.50;2252.80;;;;;;5017210;28;20116;-87
2023/02/03 17:53:20;;;;;;;112.13;60.88;;;179.40;2252.80;;;;;;5017027;28;20033;-87
2023/02/03 17:55:46;;;;;;;105.45;58.30;;;179.40;2252.80;;;;;;5017164;28;20041;-90
2023/02/03 17:58:13;;;;;;;111.22;60.80;;;179.40;2252.80;;;;;;5018398;28;20025;-89
2023/02/03 18:00:38;;;;;;;131.43;70.07;;;179.40;2252.80;;;;;;5037767;28;20021;-91
2023/02/03 18:03:04;;;;;;;123.18;71.05;;;179.40;2252.80;;;;;;5061288;28;20092;-92
2023/02/03 18:05:31;;;;;;;114.22;66.97;;;179.40;2252.80;;;;;;5058895;28;20012;-90
2023/02/03 18:07:57;;;;;;;103.05;56.33;;;179.40;2252.80;;;;;;5061486;28;20013;-89
2023/02/03 18:10:23;;;;;;;101.78;55.72;;;179.40;2252.80;;;;;;5061942;28;20043;-89
2023/02/03 18:12:48;;;;;;;106.40;56.25;;;179.40;2252.80;;;;;;5060031;28;20029;-89
2023/02/03 18:15:14;;;;;;;91.85;50.85;;;179.50;2252.80;;;;;;5048199;28;20036;-89
2023/02/03 18:17:40;;;;;;;82.20;49.63;;;179.60;2252.80;;;;;;5045460;28;20025;-89
2023/02/03 18:20:06;;;;;;;91.22;50.58;;;179.50;2252.80;;;;;;5045727;28;20078;-93
2023/02/03 18:22:33;;;;;;;141.55;74.78;;;179.50;2252.80;;;;;;5047010;28;20049;-92
2023/02/03 18:24:59;;;;;;;86.90;48.30;;;179.50;2252.80;;;;;;5047944;28;20029;-92
2023/02/03 18:27:24;;;;;;;83.22;50.97;;;179.50;2252.80;;;;;;5047283;28;20032;-91
2023/02/03 18:29:50;;;;;;;102.20;62.13;;;179.40;2252.80;;;;;;5045200;28;20029;-92
2023/02/03 18:32:16;;;;;;;151.40;73.25;;;179.40;2252.80;;;;;;5058627;28;20028;-93
2023/02/03 18:34:42;;;;;;;147.40;73.80;;;179.40;2252.80;;;;;;5037389;28;20121;-93
2023/02/03 18:37:07;;;;;;;112.47;63.70;;;179.40;2252.80;;;;;;5037568;28;20171;-90